Waco Regional Airport
KACT : now visible

Airfield :











YOU CAN JOIN US ON...

 
LOGIN :

Register | Disclaimer

   EN    FR    IT 

 









Legend :    VFR   Marginal VFR   IFR   Intensive IFR   Very Intensive IFR
Visi :
Ceiling :
>= 8 km
>= 3000ft
5 to 8 km
1000 to 3000 ft
1500m to 5 km
500 to 1000 ft
800 to 1500m
200 to 500 ft
< 800m
< 200 ft
Symbols :   Thunderstorms  Fog  Heavy snow  Heavy precipitations  Wind > 20 kt






- Airport Elevation : 516 ft
- IATA code : ACT


KACT - Waco Regional

CURRENT METAR :
  • 190351Z 08006KT 10SM BKN110 27/21 A3004 RMK AO2 SLP164 T02720211

EXPIRED METARs :
  • 190251Z 08008KT 10SM CLR 29/21 A3001 RMK AO2 LTG DSNT S AND SW SLP155 60000 T02890211 52022
  • 190151Z 08007KT 10SM FEW100 SCT110 30/21 A2999 RMK AO2 RAE04 SLP149 P0000 T03000211
  • 190051Z 04010KT 10SM -RA BKN055 31/21 A2997 RMK AO2 RAB43 SLP139 P0000 T03060211
  • 182351Z 02009KT 10SM BKN070 33/19 A2995 RMK AO2 SLP133 T03330189 10350 20322 56012

TAF KACT
Valid from the 19 at 03:00 until the 20 at 00:00 UTC


190258Z 1903/1924 03006KT P6SM FEW060 SCT250
KZFW FIR / North America



MET'MAP, your aeronautical weather chart ! - Copyright ORBIFLY December 2007 - Disclaimer

ORBIFLY MET'MAP TEAM :

Programming & Development : Alexandra Zaïnal
Original concept : Baudouin d'Aumeries
Technical & hardware support : Manuel Goepfert
Assistance : Marc-Olivier Méhu




SOURCES & CREDITS :

   NOAA       Earth
Advisory